createdAt,value
2018-12-07T00:02:17.511Z,83.33
2018-12-07T00:04:40.617Z,83.60
2018-12-07T00:07:03.912Z,83.28
2018-12-07T00:09:27.021Z,83.26
2018-12-07T00:11:50.120Z,83.08
2018-12-07T00:14:13.382Z,84.12
2018-12-07T00:16:36.574Z,84.01
2018-12-07T00:18:59.715Z,83.82
2018-12-07T00:21:22.868Z,83.58
2018-12-07T00:23:45.989Z,83.71
2018-12-07T00:26:09.142Z,83.67
2018-12-07T00:28:32.342Z,83.77
2018-12-07T00:30:55.448Z,84.33
2018-12-07T00:33:18.574Z,83.65
2018-12-07T00:35:41.688Z,84.00
2018-12-07T00:38:04.862Z,84.48
2018-12-07T00:40:28.021Z,84.28
2018-12-07T00:42:51.126Z,84.89
2018-12-07T00:45:14.218Z,84.95
2018-12-07T00:47:37.361Z,84.58
2018-12-07T00:50:00.460Z,84.48
2018-12-07T00:52:23.636Z,83.94
2018-12-07T00:54:46.753Z,84.89
2018-12-07T00:57:09.956Z,85.38
2018-12-07T00:59:33.075Z,84.65
2018-12-07T01:01:57.940Z,84.95
2018-12-07T01:04:21.062Z,84.71
2018-12-07T01:06:44.169Z,84.30
2018-12-07T01:09:07.378Z,84.59
2018-12-07T01:11:30.566Z,84.31
2018-12-07T01:13:53.690Z,85.46
2018-12-07T01:16:16.806Z,85.13
2018-12-07T01:18:39.934Z,85.00
2018-12-07T01:21:03.099Z,84.94
2018-12-07T01:23:26.266Z,85.13
2018-12-07T01:25:49.388Z,85.60
2018-12-07T01:28:12.514Z,85.61
2018-12-07T01:30:35.738Z,84.84
2018-12-07T01:32:58.895Z,85.16
2018-12-07T01:35:22.092Z,85.51
2018-12-07T01:37:45.223Z,84.84
2018-12-07T01:40:08.413Z,85.17
2018-12-07T01:42:31.513Z,85.85
2018-12-07T01:44:54.647Z,85.51
2018-12-07T01:47:17.793Z,85.17
2018-12-07T01:49:40.931Z,84.81
2018-12-07T01:52:04.079Z,85.32
2018-12-07T01:54:27.212Z,85.01
2018-12-07T01:56:50.360Z,85.25
2018-12-07T01:59:13.541Z,85.06
2018-12-07T02:01:36.672Z,84.66
2018-12-07T02:03:59.833Z,84.84
2018-12-07T02:06:22.967Z,84.38
2018-12-07T02:08:46.073Z,84.22
2018-12-07T02:11:09.263Z,84.59
2018-12-07T02:13:32.383Z,84.18
2018-12-07T02:15:55.545Z,84.12
2018-12-07T02:18:18.660Z,84.46
2018-12-07T02:20:41.853Z,83.56
2018-12-07T02:23:05.053Z,83.25
2018-12-07T02:25:28.205Z,83.09
2018-12-07T02:27:56.957Z,83.79
2018-12-07T02:30:20.185Z,83.47
2018-12-07T02:32:43.915Z,83.03
2018-12-07T02:35:07.109Z,83.29
2018-12-07T02:37:30.263Z,83.58
2018-12-07T02:39:55.047Z,83.13
2018-12-07T02:42:18.204Z,83.77
2018-12-07T02:44:41.363Z,83.67
2018-12-07T02:47:04.728Z,83.67
2018-12-07T02:49:27.886Z,84.23
2018-12-07T02:51:51.005Z,83.73
2018-12-07T02:54:14.128Z,83.62
2018-12-07T02:56:37.362Z,83.86
2018-12-07T02:59:00.496Z,84.48
2018-12-07T03:01:23.657Z,84.54
2018-12-07T03:03:46.835Z,83.82
2018-12-07T03:06:09.961Z,84.11
2018-12-07T03:08:33.086Z,84.06
2018-12-07T03:10:56.220Z,83.62
2018-12-07T03:13:19.464Z,84.60
2018-12-07T03:15:42.592Z,84.40
2018-12-07T03:18:09.602Z,83.69
2018-12-07T03:20:32.812Z,83.87
2018-12-07T03:22:55.937Z,83.89
2018-12-07T03:25:19.096Z,84.54
2018-12-07T03:27:42.199Z,83.83
2018-12-07T03:30:06.310Z,84.02
2018-12-07T03:32:29.441Z,83.67
2018-12-07T03:34:52.709Z,84.15
2018-12-07T03:37:15.849Z,84.59
2018-12-07T03:39:39.002Z,84.46
2018-12-07T03:42:02.180Z,85.07
2018-12-07T03:44:25.346Z,83.86
2018-12-07T03:46:48.555Z,84.66
2018-12-07T03:49:11.676Z,85.27
2018-12-07T03:51:34.896Z,84.96
2018-12-07T03:53:58.143Z,84.54
2018-12-07T03:56:21.245Z,84.20
2018-12-07T03:58:44.365Z,84.98
2018-12-07T04:01:07.617Z,84.93
2018-12-07T04:03:30.707Z,84.87
2018-12-07T04:05:53.815Z,84.68
2018-12-07T04:08:16.925Z,84.17
2018-12-07T04:10:40.024Z,84.35
2018-12-07T04:13:03.218Z,84.74
2018-12-07T04:15:26.334Z,85.33
2018-12-07T04:17:49.549Z,84.84
2018-12-07T04:20:12.732Z,84.85
2018-12-07T04:22:35.839Z,85.00
2018-12-07T04:24:58.955Z,84.32
2018-12-07T04:27:22.066Z,84.20
2018-12-07T04:29:45.248Z,84.38
2018-12-07T04:32:08.406Z,84.81
2018-12-07T04:34:31.999Z,85.59
2018-12-07T04:36:55.103Z,85.35
2018-12-07T04:39:18.215Z,85.42
2018-12-07T04:41:41.367Z,84.43
2018-12-07T04:44:04.492Z,84.51
2018-12-07T04:46:27.648Z,85.09
2018-12-07T04:48:50.748Z,85.62
2018-12-07T04:51:14.003Z,85.21
2018-12-07T04:53:37.088Z,85.18
2018-12-07T04:56:00.212Z,84.72
2018-12-07T04:58:23.310Z,84.43
2018-12-07T05:00:46.431Z,84.26
2018-12-07T05:03:09.567Z,84.50
2018-12-07T05:05:32.739Z,85.03
2018-12-07T05:07:55.850Z,84.53
2018-12-07T05:10:18.980Z,84.56
2018-12-07T05:12:42.222Z,83.78
2018-12-07T05:15:06.332Z,84.96
2018-12-07T05:17:29.445Z,85.29
2018-12-07T05:19:52.555Z,84.34
2018-12-07T05:22:15.656Z,84.17
2018-12-07T05:24:38.800Z,84.52
2018-12-07T05:27:01.944Z,84.89
2018-12-07T05:29:25.106Z,84.92
2018-12-07T05:31:48.217Z,84.44
2018-12-07T05:34:11.302Z,84.70
2018-12-07T05:36:34.444Z,84.02
2018-12-07T05:38:57.544Z,84.54
2018-12-07T05:41:20.663Z,85.00
2018-12-07T05:43:52.476Z,84.40
2018-12-07T05:46:15.586Z,84.29
2018-12-07T05:48:38.695Z,84.40
2018-12-07T05:51:01.822Z,84.84
2018-12-07T05:53:24.904Z,85.00
2018-12-07T05:55:48.039Z,84.24
2018-12-07T05:58:11.202Z,84.90
2018-12-07T06:00:34.289Z,85.00
2018-12-07T06:02:57.438Z,83.98
2018-12-07T06:05:20.551Z,84.32
2018-12-07T06:07:43.678Z,84.87
2018-12-07T06:10:06.867Z,84.80
2018-12-07T06:12:29.970Z,84.38
2018-12-07T06:14:53.114Z,84.57
2018-12-07T06:17:16.241Z,84.98
2018-12-07T06:19:39.338Z,84.90
2018-12-07T06:22:02.483Z,84.07
2018-12-07T06:24:25.655Z,84.77
2018-12-07T06:26:48.812Z,84.53
2018-12-07T06:29:11.919Z,84.22
2018-12-07T06:31:35.060Z,83.98
2018-12-07T06:33:58.187Z,84.38
2018-12-07T06:36:21.304Z,84.87
2018-12-07T06:38:44.444Z,84.35
2018-12-07T06:41:07.528Z,84.38
2018-12-07T06:43:30.654Z,83.32
2018-12-07T06:45:53.753Z,83.98
2018-12-07T06:48:16.855Z,83.18
2018-12-07T06:50:40.032Z,83.54
2018-12-07T06:53:03.170Z,84.13
2018-12-07T06:55:26.692Z,85.09
2018-12-07T06:57:49.823Z,84.07
2018-12-07T07:00:12.986Z,84.18
2018-12-07T07:02:36.115Z,84.03
2018-12-07T07:04:59.250Z,84.72
2018-12-07T07:07:22.419Z,84.65
2018-12-07T07:09:45.604Z,84.29
2018-12-07T07:12:08.781Z,84.30
2018-12-07T07:14:31.947Z,84.10
2018-12-07T07:16:55.033Z,84.02
2018-12-07T07:19:18.128Z,83.78
2018-12-07T07:21:41.309Z,84.11
2018-12-07T07:24:04.485Z,84.56
2018-12-07T07:26:27.879Z,83.55
2018-12-07T07:28:50.976Z,83.35
2018-12-07T07:31:14.129Z,83.33
2018-12-07T07:33:37.273Z,83.08
2018-12-07T07:36:00.405Z,83.69
2018-12-07T07:38:23.542Z,83.69
2018-12-07T07:40:46.619Z,82.96
2018-12-07T07:43:09.736Z,84.18
2018-12-07T07:45:32.870Z,83.67
2018-12-07T07:47:55.983Z,83.42
2018-12-07T07:50:19.134Z,83.66
2018-12-07T07:52:42.236Z,83.94
2018-12-07T07:55:05.598Z,83.80
2018-12-07T07:57:28.716Z,83.56
2018-12-07T07:59:51.807Z,83.64
2018-12-07T08:02:15.008Z,83.73
2018-12-07T08:04:38.125Z,83.31
2018-12-07T08:07:01.236Z,83.34
2018-12-07T08:09:24.329Z,83.92
2018-12-07T08:11:47.464Z,84.34
2018-12-07T08:14:10.565Z,84.30
2018-12-07T08:16:33.670Z,83.71
2018-12-07T08:18:56.874Z,83.59
2018-12-07T08:21:19.982Z,84.25
2018-12-07T08:23:43.052Z,84.20
2018-12-07T08:26:06.184Z,83.84
2018-12-07T08:28:29.319Z,84.04
2018-12-07T08:30:52.466Z,83.54
2018-12-07T08:33:15.559Z,84.32
2018-12-07T08:35:38.703Z,83.92
2018-12-07T08:38:01.800Z,84.87
2018-12-07T08:40:24.920Z,83.71
2018-12-07T08:42:48.017Z,83.89
2018-12-07T08:45:11.179Z,84.28
2018-12-07T08:47:34.412Z,84.64
2018-12-07T08:49:57.726Z,83.93
2018-12-07T08:52:20.825Z,84.55
2018-12-07T08:54:44.022Z,83.58
2018-12-07T08:57:07.182Z,82.94
2018-12-07T08:59:30.325Z,83.72
2018-12-07T09:01:53.417Z,83.81
2018-12-07T09:04:16.542Z,84.61
2018-12-07T09:06:39.676Z,84.27
2018-12-07T09:09:02.750Z,84.62
2018-12-07T09:11:25.903Z,84.88
2018-12-07T09:13:48.995Z,84.97
2018-12-07T09:16:12.163Z,84.39
2018-12-07T09:18:35.249Z,83.42
2018-12-07T09:20:58.380Z,83.72
2018-12-07T09:23:21.525Z,83.78
2018-12-07T09:25:44.764Z,83.41
2018-12-07T09:28:07.857Z,83.72
2018-12-07T09:30:30.975Z,83.08
2018-12-07T09:32:54.087Z,83.54
2018-12-07T09:35:17.211Z,83.04
2018-12-07T09:37:40.315Z,83.07
2018-12-07T09:40:03.782Z,83.15
2018-12-07T09:42:26.939Z,83.64
2018-12-07T09:44:50.047Z,84.07
2018-12-07T09:47:13.208Z,82.96
2018-12-07T09:49:36.403Z,83.63
2018-12-07T09:51:59.550Z,83.54
2018-12-07T09:54:22.656Z,84.08
2018-12-07T09:56:45.762Z,83.91
2018-12-07T09:59:08.902Z,83.96
2018-12-07T10:01:32.019Z,83.57
2018-12-07T10:03:55.131Z,84.13
2018-12-07T10:06:18.264Z,84.46
2018-12-07T10:08:41.410Z,84.81
2018-12-07T10:11:04.574Z,84.48
2018-12-07T10:13:27.819Z,83.72
2018-12-07T10:15:50.922Z,84.36
2018-12-07T10:18:14.043Z,84.37
2018-12-07T10:20:37.158Z,84.23
2018-12-07T10:23:00.296Z,83.43
2018-12-07T10:25:23.424Z,83.41
2018-12-07T10:27:46.537Z,84.22
2018-12-07T10:30:09.687Z,83.85
2018-12-07T10:32:32.777Z,83.38
2018-12-07T10:34:55.922Z,83.75
2018-12-07T10:37:19.063Z,83.96
2018-12-07T10:39:42.873Z,83.62
2018-12-07T10:42:05.960Z,82.97
2018-12-07T10:44:29.113Z,83.78
2018-12-07T10:46:52.271Z,83.96
2018-12-07T10:49:15.363Z,84.71
2018-12-07T10:51:38.465Z,85.57
2018-12-07T10:54:01.584Z,84.53
2018-12-07T10:56:24.755Z,84.01
2018-12-07T10:58:47.891Z,83.93
2018-12-07T11:01:16.616Z,83.77
2018-12-07T11:03:45.254Z,83.12
2018-12-07T11:06:10.333Z,83.74
2018-12-07T11:08:39.015Z,84.35
2018-12-07T11:11:04.084Z,84.01
2018-12-07T11:13:32.666Z,83.94
2018-12-07T11:16:01.264Z,84.38
2018-12-07T11:18:30.003Z,84.56
2018-12-07T11:20:58.871Z,84.73
2018-12-07T11:23:23.915Z,84.65
2018-12-07T11:25:52.528Z,84.59
2018-12-07T11:28:21.178Z,84.85
2018-12-07T11:33:48.550Z,85.14
2018-12-07T11:36:11.676Z,84.73
2018-12-07T11:38:34.801Z,84.80
2018-12-07T11:40:57.885Z,83.56
2018-12-07T11:43:21.011Z,84.19
2018-12-07T11:45:44.131Z,84.21
2018-12-07T11:48:07.319Z,84.30
2018-12-07T11:50:30.429Z,84.02
2018-12-07T11:52:53.504Z,83.85
2018-12-07T11:55:16.655Z,84.00
2018-12-07T11:57:39.747Z,84.24
2018-12-07T12:00:04.458Z,84.10
2018-12-07T12:02:27.575Z,83.73
2018-12-07T12:04:50.685Z,84.28
2018-12-07T12:07:13.801Z,83.33
2018-12-07T12:09:36.896Z,83.64
2018-12-07T12:12:00.005Z,83.36
2018-12-07T12:14:23.217Z,82.88
2018-12-07T12:16:46.293Z,82.10
2018-12-07T12:19:09.401Z,82.66
2018-12-07T12:21:32.609Z,82.53
2018-12-07T12:23:55.714Z,82.13
2018-12-07T12:26:18.834Z,81.81
2018-12-07T12:28:41.969Z,82.02
2018-12-07T12:31:05.127Z,82.01
2018-12-07T12:33:28.333Z,81.63
2018-12-07T13:23:51.365Z,81.67
2018-12-07T13:26:14.460Z,81.13
2018-12-07T13:28:37.582Z,82.01
2018-12-07T13:31:00.691Z,82.26
2018-12-07T13:33:23.814Z,81.17
2018-12-07T13:35:46.960Z,81.42
2018-12-07T13:38:10.079Z,81.83
2018-12-07T13:40:33.383Z,81.38
2018-12-07T13:42:56.700Z,81.46
2018-12-07T13:45:20.115Z,80.84
2018-12-07T13:47:43.470Z,81.41
2018-12-07T13:50:12.389Z,82.59
2018-12-07T13:52:35.795Z,81.64
2018-12-07T13:54:58.990Z,80.47
2018-12-07T13:57:22.225Z,81.95
2018-12-07T13:59:45.455Z,80.79
2018-12-07T14:02:08.705Z,80.91
2018-12-07T14:04:32.169Z,80.14
2018-12-07T14:06:55.516Z,80.08
2018-12-07T14:09:18.771Z,80.37
2018-12-07T14:11:42.029Z,80.00
2018-12-07T14:14:05.314Z,79.53
2018-12-07T14:16:28.654Z,79.74
2018-12-07T14:18:51.959Z,80.83
2018-12-07T14:21:15.161Z,80.80
2018-12-07T14:23:38.429Z,81.03
2018-12-07T14:26:01.703Z,80.03
2018-12-07T14:28:24.931Z,80.06
2018-12-07T14:30:48.240Z,80.67
2018-12-07T14:33:11.460Z,81.00
2018-12-07T14:35:34.628Z,80.54
2018-12-07T14:37:57.816Z,79.41
2018-12-07T14:40:20.912Z,79.62
2018-12-07T14:42:44.164Z,79.89
2018-12-07T14:45:07.788Z,79.68
2018-12-07T14:47:30.986Z,79.82
2018-12-07T14:49:54.257Z,79.67
2018-12-07T14:52:17.414Z,78.85
2018-12-07T14:54:40.681Z,79.50
2018-12-07T14:57:04.032Z,78.15
2018-12-07T14:59:27.367Z,79.81
2018-12-07T15:01:50.752Z,79.08
2018-12-07T15:04:13.954Z,78.78
2018-12-07T15:06:37.296Z,80.04
2018-12-07T15:09:00.760Z,78.90
2018-12-07T15:11:24.075Z,79.48
2018-12-07T15:13:47.343Z,79.85
2018-12-07T15:16:10.552Z,79.37
2018-12-07T15:18:33.811Z,78.60
2018-12-07T15:20:57.104Z,78.60
2018-12-07T15:23:20.356Z,77.45
2018-12-07T15:25:43.574Z,78.52
2018-12-07T15:28:06.755Z,78.19
2018-12-07T15:30:29.905Z,77.15
2018-12-07T15:32:53.219Z,78.02
2018-12-07T15:35:16.382Z,78.00
2018-12-07T15:37:39.695Z,77.95
2018-12-07T15:40:03.045Z,77.40
2018-12-07T15:42:26.232Z,77.46
2018-12-07T15:44:49.443Z,77.24
2018-12-07T15:47:12.665Z,76.79
2018-12-07T15:49:41.462Z,77.10
2018-12-07T15:52:04.765Z,77.67
2018-12-07T15:54:28.208Z,77.95
2018-12-07T15:56:51.531Z,77.08
2018-12-07T15:59:14.947Z,76.99
2018-12-07T16:01:38.250Z,76.88
2018-12-07T16:04:01.559Z,77.27
2018-12-07T16:06:24.722Z,77.98
2018-12-07T16:08:48.007Z,78.05
2018-12-07T16:11:11.376Z,76.45
2018-12-07T16:13:34.601Z,77.16
2018-12-07T16:15:57.861Z,76.43
2018-12-07T16:18:21.235Z,76.61
2018-12-07T16:20:44.481Z,77.10
2018-12-07T16:23:07.734Z,76.46
2018-12-07T16:25:31.136Z,76.61
2018-12-07T16:27:54.269Z,76.03
2018-12-07T16:30:17.702Z,76.50
2018-12-07T16:32:41.157Z,76.54
2018-12-07T16:35:05.267Z,76.24
2018-12-07T16:37:28.597Z,76.79
2018-12-07T16:39:51.778Z,76.54
2018-12-07T16:42:15.023Z,76.29
2018-12-07T16:44:38.214Z,76.51
2018-12-07T16:47:01.421Z,76.63
2018-12-07T16:49:24.781Z,77.10
2018-12-07T16:51:47.969Z,76.72
2018-12-07T16:54:11.054Z,77.24
2018-12-07T16:56:34.159Z,76.43
2018-12-07T16:58:57.389Z,75.93
2018-12-07T17:01:20.531Z,76.75
2018-12-07T17:03:43.700Z,76.56
2018-12-07T17:06:06.842Z,76.35
2018-12-07T17:08:30.041Z,75.97
2018-12-07T17:10:53.251Z,75.97
2018-12-07T17:13:16.435Z,76.54
2018-12-07T17:15:40.388Z,76.49
2018-12-07T17:18:03.649Z,76.06
2018-12-07T17:20:27.102Z,76.21
2018-12-07T17:22:50.366Z,76.33
2018-12-07T17:25:13.647Z,76.76
2018-12-07T17:27:37.096Z,76.44
2018-12-07T17:30:00.347Z,76.43
2018-12-07T17:32:23.914Z,76.97
2018-12-07T17:34:47.461Z,76.23
2018-12-07T17:37:10.726Z,77.21
2018-12-07T17:39:34.302Z,77.01
2018-12-07T17:41:57.646Z,77.15
2018-12-07T17:44:20.820Z,77.57
2018-12-07T17:46:43.976Z,77.18
2018-12-07T17:49:07.148Z,77.29
2018-12-07T17:51:30.717Z,76.41
2018-12-07T17:53:53.851Z,76.64
2018-12-07T17:56:17.083Z,75.95
2018-12-07T17:58:40.352Z,77.10
2018-12-07T18:01:03.595Z,76.85
2018-12-07T18:03:26.821Z,77.07
2018-12-07T18:05:50.018Z,77.29
2018-12-07T18:08:13.381Z,77.64
2018-12-07T18:10:36.628Z,77.55
2018-12-07T18:12:59.917Z,76.53
2018-12-07T18:15:23.338Z,77.20
2018-12-07T18:17:46.709Z,77.05
2018-12-07T18:20:10.247Z,76.24
2018-12-07T18:22:33.730Z,77.49
2018-12-07T18:24:57.035Z,77.13
2018-12-07T18:27:20.563Z,76.11
2018-12-07T18:29:44.218Z,76.51
2018-12-07T18:32:07.484Z,75.62
2018-12-07T18:34:30.770Z,75.68
2018-12-07T18:36:54.175Z,74.47
2018-12-07T18:39:17.748Z,74.62
2018-12-07T18:41:41.135Z,74.34
2018-12-07T18:44:04.574Z,73.57
2018-12-07T18:46:27.918Z,74.20
2018-12-07T18:48:51.353Z,75.09
2018-12-07T18:51:14.666Z,74.84
2018-12-07T18:53:37.809Z,74.22
2018-12-07T18:56:01.005Z,75.23
2018-12-07T18:58:24.337Z,75.39
2018-12-07T19:00:47.509Z,74.77
2018-12-07T19:03:10.898Z,75.71
2018-12-07T19:05:34.175Z,74.98
2018-12-07T19:07:57.417Z,75.83
2018-12-07T19:10:20.871Z,75.79
2018-12-07T19:12:44.087Z,76.29
2018-12-07T19:15:07.850Z,77.02
2018-12-07T19:17:31.326Z,76.36
2018-12-07T19:19:54.504Z,76.68
2018-12-07T19:22:17.705Z,76.34
2018-12-07T19:24:40.941Z,76.87
2018-12-07T19:27:04.776Z,76.75
2018-12-07T19:29:27.879Z,77.30
2018-12-07T19:31:50.999Z,77.40
2018-12-07T19:34:14.306Z,76.83
2018-12-07T19:36:37.861Z,77.26
2018-12-07T19:39:01.660Z,76.91
2018-12-07T19:41:25.070Z,77.11
2018-12-07T19:43:48.398Z,77.06
2018-12-07T19:46:11.945Z,76.47
2018-12-07T19:48:35.341Z,76.72
2018-12-07T19:51:00.625Z,76.50
2018-12-07T19:53:23.769Z,76.28
2018-12-07T19:55:46.946Z,77.00
2018-12-07T19:58:10.513Z,77.28
2018-12-07T20:00:33.699Z,77.31
2018-12-07T20:02:57.012Z,76.36
2018-12-07T20:05:20.472Z,77.04
2018-12-07T20:07:43.613Z,77.09
2018-12-07T20:10:07.407Z,76.81
2018-12-07T20:12:30.553Z,76.91
2018-12-07T20:14:54.039Z,76.59
2018-12-07T20:17:17.320Z,77.09
2018-12-07T20:19:40.464Z,77.44
2018-12-07T20:22:03.843Z,78.03
2018-12-07T20:24:27.299Z,77.27
2018-12-07T20:26:50.523Z,77.67
2018-12-07T20:29:13.990Z,77.49
2018-12-07T20:31:37.135Z,77.10
2018-12-07T20:34:00.528Z,76.38
2018-12-07T20:36:24.346Z,76.70
2018-12-07T20:38:47.725Z,76.68
2018-12-07T20:41:11.079Z,77.02
2018-12-07T20:43:34.277Z,76.76
2018-12-07T20:45:57.463Z,77.87
2018-12-07T20:48:20.947Z,77.95
2018-12-07T20:50:44.311Z,77.74
2018-12-07T20:53:07.764Z,77.88
2018-12-07T20:55:31.164Z,77.30
2018-12-07T20:57:54.498Z,77.19
2018-12-07T21:00:17.810Z,77.22
2018-12-07T21:02:41.472Z,77.48
2018-12-07T21:05:08.889Z,78.63
2018-12-07T21:07:44.541Z,78.89
2018-12-07T21:13:31.273Z,80.51
2018-12-07T21:15:54.544Z,80.11
2018-12-07T21:18:17.852Z,79.77
2018-12-07T21:20:41.278Z,78.88
2018-12-07T21:23:04.641Z,80.08
2018-12-07T21:25:27.871Z,79.10
2018-12-07T21:27:51.583Z,77.79
2018-12-07T21:33:17.990Z,79.07
2018-12-07T21:35:57.702Z,78.80
2018-12-07T21:38:21.135Z,78.78
2018-12-07T21:40:44.441Z,79.23
2018-12-07T21:43:07.585Z,79.37
2018-12-07T21:45:30.736Z,79.69
2018-12-07T21:48:21.501Z,79.62
2018-12-07T21:50:45.874Z,80.07
2018-12-07T21:53:09.002Z,80.77
2018-12-07T21:55:32.141Z,81.50
2018-12-07T21:57:55.336Z,81.96
2018-12-07T22:00:18.467Z,82.12
2018-12-07T22:02:41.570Z,81.44
2018-12-07T22:05:05.288Z,81.82
2018-12-07T22:07:28.757Z,81.42
2018-12-07T22:09:51.985Z,81.12
2018-12-07T22:12:15.279Z,81.13
2018-12-07T22:14:38.544Z,82.23
2018-12-07T22:17:01.952Z,81.57
2018-12-07T22:19:25.217Z,80.08
2018-12-07T22:21:48.390Z,79.78
2018-12-07T22:24:11.537Z,79.93
2018-12-07T22:26:34.651Z,80.77
2018-12-07T22:28:58.456Z,80.37
2018-12-07T22:31:21.711Z,80.64
2018-12-07T22:33:44.820Z,80.74
2018-12-07T22:36:09.642Z,80.77
2018-12-07T22:38:32.975Z,81.07
2018-12-07T22:40:56.263Z,81.30
2018-12-07T22:43:19.490Z,81.19
2018-12-07T22:45:42.711Z,81.58
2018-12-07T22:48:06.100Z,81.25
2018-12-07T22:50:29.259Z,81.91
2018-12-07T22:52:52.392Z,82.04
2018-12-07T22:55:15.577Z,81.61
2018-12-07T22:57:38.723Z,81.65
2018-12-07T23:00:01.840Z,82.01
2018-12-07T23:02:24.970Z,81.40
2018-12-07T23:04:48.074Z,81.97
2018-12-07T23:07:11.187Z,81.19
2018-12-07T23:09:34.718Z,80.94
2018-12-07T23:11:57.869Z,80.88
2018-12-07T23:14:20.972Z,80.98
2018-12-07T23:16:44.121Z,80.22
2018-12-07T23:19:07.291Z,79.96
2018-12-07T23:21:30.403Z,79.76
2018-12-07T23:23:53.618Z,79.58
2018-12-07T23:26:16.712Z,79.21
2018-12-07T23:28:39.840Z,78.94
2018-12-07T23:31:02.968Z,79.49
2018-12-07T23:33:26.103Z,79.16
2018-12-07T23:35:49.338Z,78.07
2018-12-07T23:38:12.424Z,79.11
2018-12-07T23:40:35.509Z,78.54
2018-12-07T23:43:00.608Z,79.01
2018-12-07T23:45:23.684Z,78.42
2018-12-07T23:47:46.819Z,78.83
2018-12-07T23:50:10.013Z,77.98
2018-12-07T23:52:33.157Z,78.47
2018-12-07T23:54:56.265Z,77.60
2018-12-07T23:57:19.389Z,77.45
2018-12-07T23:59:42.695Z,78.04
